Home PIREPS Pireps

Flight SAB2290

  • Submitted By: Vincent Fourni
  • Departure Airport: Arlanda (ESSA)
  • Arrival Airport: Bruxelles National (EBBR)
  • Aircraft: B737-500 (OO-SAB)
  • Flight Time: 02.01
  • Date Submitted: 11/11/2016
  • Status: Accepted
Flight Details
Gross Revenue:
(122 load / € 0.00 per unit
€ 0.00
Fuel Cost:
(20620 fuel used @ 5.1 / unit)
€ 105,162.00

Additional Log Information:

View Log

Aircraft Used in flight is PMDG 737-800NGX Brussels Airlines Winglets
20:58 You Took off @ 176 Knots and Flaps at Position 2
Departure Weather
ESSA 111920Z 24006KT 9999 BKN014 M04/M05 Q1022 R01L/19//57 R08/15//60 R01R/15//72 BECMG SCT015rn
20:58 Landing Gear Up @ 179 Knots and 420 Feet
21:03 Above FL100 you need to switch of the landing lights
22:24 Above FL100 you need to switch of the landing lights
22:39 Landing Gear Down @ 199 Knots and 3020 Feet
22:43 You Landed @ 122 Knots and with -750 Vertical Speed
Arrival Weather
EBBR 112050Z 14004KT 6000 BKN022 01/00 Q1025 NOSIGrn
22:43 Your Landing was very hard
22:43 Paused
22:48 Unpaused
22:48 Paused
22:48 Brakes are On
22:48 Unpaused
22:51 Brussels Bel-Track1.0.1.2

Route Map

Corporate About Us Our Team Vacancies Information Fleet Route Network Rules and Regulations Operations Flight Schedules Event Center Tours Partners IVAO Vatsim Acars dev FSCB

fb Users Online South Africa Marc Toussaint,
1 Pilot(s) and 136 Guest(s) Online
CMS by phpVMS - Design by Crazycreatives.com - Copyright © 2020 - Brussels Airlines Virtual